»·PEaware :: N1128 KLAS-KSBA

N1128 :: KLAS-KSBA

FLIGHT INFORMATION

Flight Status: Arrived
Operator: Privately registered:
United States
More flights under this callsign
Pilot: Siddique N. (20419)
Aircraft: Unknown
(BT7)
More flights by this aircraft type
Origin: KLAS McCarran Intl
United States
Destination: KSBA Santa Barbara Mun
United States
More flights between these airports :: More routes between these airports
Route: +BOACH8 HEC PITBL1
File this flight plan on PilotEdge
Remarks:
Altitude:
(Current/Filed)
28,000ft
Speed:
(Current/Filed)
300kts
Departed: 02-Sep-20 10:10 AM
Arrived: 02-Sep-20 11:03 AM
Distance/Time
Traveled:
250nm/0:53
Distance/Time
To Go:
Arrived

Flight Plot

Page will automatically refresh every two minutes.

Flight plan parsing failed; only flown route is shown


Map Options




Map Legend


Flown Route
Filed Route
Departure Airport
Arrival Airport
Navaid (VOR, NDB)
Fix

Horizontal Profiles

Position Reports

Time Latitude Longitude Heading Altitude Ground
Speed
02-Sep-20 09:53 36.085989 -115.168337 91 2150ft 0kts
02-Sep-20 09:54 36.085989 -115.168337 91 2150ft 0kts
02-Sep-20 09:55 36.085989 -115.168337 91 2150ft 0kts
02-Sep-20 09:56 36.085989 -115.168337 91 2150ft 0kts
02-Sep-20 09:57 36.085989 -115.168337 91 2150ft 0kts
02-Sep-20 09:58 36.085989 -115.168337 91 2150ft 0kts
02-Sep-20 09:59 36.085989 -115.168337 91 2150ft 0kts
02-Sep-20 09:59 36.085989 -115.168337 91 2150ft 0kts
02-Sep-20 10:01 36.085989 -115.168337 91 2150ft 0kts
02-Sep-20 10:02 36.085989 -115.168315 91 2150ft 0kts
02-Sep-20 10:02 36.085989 -115.168315 91 2150ft 0kts
02-Sep-20 10:04 36.085989 -115.168315 91 2150ft 0kts
02-Sep-20 10:04 36.085989 -115.168315 91 2150ft 0kts
02-Sep-20 10:05 36.089603 -115.164587 24 2128ft 32kts
02-Sep-20 10:07 36.099859 -115.157676 83 2088ft 11kts
02-Sep-20 10:07 36.099864 -115.157615 84 2088ft 0kts
02-Sep-20 10:08 36.099705 -115.156583 128 2086ft 9kts
02-Sep-20 10:09 36.083559 -115.165599 205 2379ft 190kts
02-Sep-20 10:10 36.040287 -115.194353 210 3639ft 205kts
02-Sep-20 10:11 35.998142 -115.243671 240 5335ft 223kts
02-Sep-20 10:12 35.953522 -115.301977 187 5810ft 283kts
02-Sep-20 10:13 35.875981 -115.308391 186 6354ft 265kts
02-Sep-20 10:14 35.806479 -115.305240 177 6796ft 250kts
02-Sep-20 10:15 35.741892 -115.298199 177 8147ft 229kts
02-Sep-20 10:16 35.671569 -115.303563 220 9741ft 289kts
02-Sep-20 10:17 35.613127 -115.376993 227 12369ft 294kts
02-Sep-20 10:18 35.552303 -115.458899 229 12804ft 363kts
02-Sep-20 10:19 35.484890 -115.553482 231 14290ft 371kts
02-Sep-20 10:20 35.417089 -115.643234 228 16690ft 343kts
02-Sep-20 10:21 35.350851 -115.725634 229 20020ft 344kts
02-Sep-20 10:22 35.283586 -115.815724 230 23581ft 370kts
02-Sep-20 10:23 35.212646 -115.916772 227 27158ft 435kts
02-Sep-20 10:24 35.125646 -116.029971 227 27906ft 451kts
02-Sep-20 10:25 35.042955 -116.137252 227 27903ft 413kts
02-Sep-20 10:26 34.963721 -116.239780 228 27885ft 421kts
02-Sep-20 10:27 34.881954 -116.345759 228 27886ft 432kts
02-Sep-20 10:28 34.804008 -116.456804 248 27908ft 428kts
02-Sep-20 10:29 34.790027 -116.600486 264 27882ft 426kts
02-Sep-20 10:30 34.778609 -116.742816 261 27889ft 421kts
02-Sep-20 10:31 34.764230 -116.884422 259 27890ft 425kts
02-Sep-20 10:32 34.747678 -117.029078 260 27889ft 437kts
02-Sep-20 10:33 34.730747 -117.177022 260 27888ft 448kts
02-Sep-20 10:34 34.710077 -117.326915 247 28009ft 444kts
02-Sep-20 10:35 34.665529 -117.454861 246 27980ft 374kts
02-Sep-20 10:36 34.632868 -117.567766 257 27136ft 349kts
02-Sep-20 10:37 34.614437 -117.685757 257 26137ft 364kts
02-Sep-20 10:38 34.594078 -117.812935 257 25207ft 418kts
02-Sep-20 10:39 34.570565 -117.956639 257 24214ft 414kts
02-Sep-20 10:40 34.549518 -118.086942 257 23963ft 373kts
02-Sep-20 10:41 34.530029 -118.209407 257 23964ft 365kts
02-Sep-20 10:42 34.509790 -118.336445 257 23698ft 403kts
02-Sep-20 10:43 34.487731 -118.472451 257 22680ft 402kts
02-Sep-20 10:44 34.466705 -118.601320 257 21634ft 379kts
02-Sep-20 10:45 34.445349 -118.730256 257 20656ft 400kts
02-Sep-20 10:46 34.423913 -118.858491 257 19634ft 371kts
02-Sep-20 10:47 34.404181 -118.976296 257 18217ft 340kts
02-Sep-20 10:48 34.386559 -119.082011 257 16770ft 289kts
02-Sep-20 10:49 34.371223 -119.176284 257 15398ft 309kts
02-Sep-20 10:50 34.354499 -119.278589 257 13398ft 297kts
02-Sep-20 10:51 34.339361 -119.373302 255 11368ft 279kts
02-Sep-20 10:52 34.322552 -119.465165 255 9388ft 302kts
02-Sep-20 10:53 34.315880 -119.570738 280 7949ft 303kts
02-Sep-20 10:54 34.327115 -119.662508 272 7522ft 253kts
02-Sep-20 10:55 34.331513 -119.739104 272 5957ft 220kts
02-Sep-20 10:56 34.335493 -119.814292 272 4029ft 215kts
02-Sep-20 10:57 34.338978 -119.883610 272 3944ft 208kts
02-Sep-20 10:58 34.342516 -119.952059 276 3936ft 199kts
02-Sep-20 10:59 34.387124 -119.975245 1 3232ft 184kts
02-Sep-20 11:00 34.422877 -119.937944 76 1430ft 166kts
02-Sep-20 11:01 34.426615 -119.883126 86 659ft 162kts
02-Sep-20 11:02 34.427778 -119.840473 88 15ft 40kts
02-Sep-20 11:03 34.428446 -119.838956 353 15ft 0kts
02-Sep-20 11:04 34.429088 -119.839074 346 15ft 11kts

Navigation Log

Ident Type
Flight plan parsing failed, navigation log unavailable